Time;durP1;ratioP1;P1;durP2;ratioP2;P2;SDS_P1;SDS_P2;PMS_P1;PMS_P2;Temp;Humidity;BMP_temperature;BMP_pressure;BME280_temperature;BME280_humidity;BME280_pressure;Samples;Min_cycle;Max_cycle;Signal;HPM_P1;HPM_P2
2021/07/27 00:00:22;;;;;;;;;;;17.90;99.90;;;;;;5070933;28;19937;-77
2021/07/27 00:02:47;;;;;;;;;;;17.90;99.90;;;;;;5093904;28;20011;-77
2021/07/27 00:05:13;;;;;;;;;;;17.90;99.90;;;;;;5087224;28;19916;-77
2021/07/27 00:07:39;;;;;;;;;;;17.90;99.90;;;;;;5079111;28;19927;-84
2021/07/27 00:10:06;;;;;;;;;;;17.90;99.90;;;;;;5096429;28;19919;-77
2021/07/27 00:12:32;;;;;;;;;;;17.90;99.90;;;;;;5096256;28;19912;-78
2021/07/27 00:14:58;;;;;;;;;;;17.90;99.90;;;;;;5092675;28;20492;-78
2021/07/27 00:17:28;;;;;;;;;;;17.90;99.90;;;;;;5090348;28;20349;-84
2021/07/27 00:19:54;;;;;;;;;;;17.80;99.90;;;;;;5073655;28;19916;-79
2021/07/27 00:22:20;;;;;;;;;;;17.80;99.90;;;;;;5082203;28;20319;-78
2021/07/27 00:24:45;;;;;;;;;;;17.80;99.90;;;;;;5090125;28;19912;-78
2021/07/27 00:27:11;;;;;;;;;;;17.80;99.90;;;;;;5082928;28;20226;-79
2021/07/27 00:29:36;;;;;;;;;;;17.80;99.90;;;;;;5072487;28;20339;-78
2021/07/27 00:32:03;;;;;;;;;;;17.80;99.90;;;;;;5090719;28;19987;-79
2021/07/27 00:34:28;;;;;;;;;;;17.80;99.90;;;;;;5065105;28;20334;-77
2021/07/27 00:36:54;;;;;;;;;;;17.80;99.90;;;;;;5069110;28;19915;-78
2021/07/27 00:39:19;;;;;;;;;;;17.80;99.90;;;;;;5080863;28;19912;-79
2021/07/27 00:41:46;;;;;;;;;;;17.80;99.90;;;;;;5075466;28;20271;-79
2021/07/27 00:44:12;;;;;;;;;;;17.80;99.90;;;;;;5083468;28;20002;-89
2021/07/27 00:46:37;;;;;;;;;;;17.80;99.90;;;;;;5084631;28;20031;-85
2021/07/27 00:49:03;;;;;;;;;;;17.80;99.90;;;;;;5072540;28;19923;-79
2021/07/27 00:51:29;;;;;;;;;;;17.80;99.90;;;;;;5077647;28;19913;-86
2021/07/27 00:53:55;;;;;;;;;;;17.80;99.90;;;;;;5099375;28;19913;-78
2021/07/27 00:56:21;;;;;;;;;;;17.80;99.90;;;;;;5073498;28;19924;-79
2021/07/27 00:58:46;;;;;;;;;;;17.80;99.90;;;;;;5076579;28;19916;-79
2021/07/27 01:01:12;;;;;;;;;;;17.80;99.90;;;;;;5068688;28;19919;-78
2021/07/27 01:03:38;;;;;;;;;;;17.80;99.90;;;;;;5087586;28;19916;-86
2021/07/27 01:06:04;;;;;;;;;;;17.80;99.90;;;;;;5075230;28;20281;-79
2021/07/27 01:08:30;;;;;;;;;;;17.80;99.90;;;;;;5088797;28;20007;-78
2021/07/27 01:10:56;;;;;;;;;;;17.80;99.90;;;;;;5087476;28;20213;-86
2021/07/27 01:13:21;;;;;;;;;;;17.70;99.90;;;;;;5074996;28;19961;-78
2021/07/27 01:15:47;;;;;;;;;;;17.70;99.90;;;;;;5072230;28;20198;-78
2021/07/27 01:18:20;;;;;;;;;;;17.70;99.90;;;;;;5089105;28;19959;-79
2021/07/27 01:37:18;;;;;;;;;;;17.80;99.90;;;;;;5076813;28;19943;-78
2021/07/27 01:40:06;;;;;;;;;;;17.60;99.90;;;;;;5089158;28;19916;-86
2021/07/27 01:42:38;;;;;;;;;;;17.60;99.90;;;;;;5068352;28;19912;-87
2021/07/27 01:45:06;;;;;;;;;;;17.60;99.90;;;;;;5070097;28;19965;-81
2021/07/27 01:47:31;;;;;;;;;;;17.50;99.90;;;;;;5072945;28;19941;-82
2021/07/27 01:49:57;;;;;;;;;;;17.50;99.90;;;;;;5089679;28;19924;-82
2021/07/27 01:52:25;;;;;;;;;;;17.50;99.90;;;;;;5073329;28;20185;-78
2021/07/27 01:54:53;;;;;;;;;;;17.50;99.90;;;;;;5075130;28;20333;-82
2021/07/27 01:57:20;;;;;;;;;;;17.50;99.90;;;;;;5072054;28;20307;-78
2021/07/27 02:00:01;;;;;;;;;;;17.50;99.90;;;;;;5071785;28;19920;-86
2021/07/27 02:02:27;;;;;;;;;;;17.40;99.90;;;;;;5070646;28;20007;-87
2021/07/27 02:04:53;;;;;;;;;;;17.40;99.90;;;;;;5083975;28;21519;-82
2021/07/27 02:07:18;;;;;;;;;;;17.40;99.90;;;;;;5089985;28;19949;-84
2021/07/27 02:09:45;;;;;;;;;;;17.40;99.90;;;;;;5091744;28;19920;-79
2021/07/27 02:12:24;;;;;;;;;;;17.40;99.90;;;;;;5076160;28;19923;-79
2021/07/27 02:15:09;;;;;;;;;;;17.30;99.90;;;;;;5066821;28;19912;-86
2021/07/27 02:17:35;;;;;;;;;;;17.30;99.90;;;;;;5091677;28;19916;-79
2021/07/27 02:20:02;;;;;;;;;;;17.30;99.90;;;;;;5079830;28;19973;-84
2021/07/27 02:22:37;;;;;;;;;;;17.30;99.90;;;;;;5086926;28;19912;-89
2021/07/27 02:25:03;;;;;;;;;;;17.30;99.90;;;;;;5075307;28;19998;-84
2021/07/27 02:27:29;;;;;;;;;;;17.20;99.90;;;;;;5100631;28;19916;-85
2021/07/27 02:29:54;;;;;;;;;;;17.20;99.90;;;;;;5074549;28;20003;-85
2021/07/27 02:32:20;;;;;;;;;;;17.20;99.90;;;;;;5094746;28;20284;-92
2021/07/27 02:34:46;;;;;;;;;;;17.30;99.90;;;;;;5090390;28;20252;-88
2021/07/27 02:37:12;;;;;;;;;;;17.20;99.90;;;;;;5090330;28;19919;-79
2021/07/27 02:39:38;;;;;;;;;;;17.20;99.90;;;;;;5080496;28;19952;-86
2021/07/27 02:42:04;;;;;;;;;;;17.20;99.90;;;;;;5063773;28;20222;-79
2021/07/27 02:44:30;;;;;;;;;;;17.10;99.90;;;;;;5092637;28;19908;-80
2021/07/27 02:46:55;;;;;;;;;;;17.10;99.90;;;;;;5074183;28;20373;-78
2021/07/27 02:49:21;;;;;;;;;;;17.10;99.90;;;;;;5079209;28;19974;-82
2021/07/27 02:51:47;;;;;;;;;;;17.10;99.90;;;;;;5087895;28;20045;-88
2021/07/27 02:54:13;;;;;;;;;;;17.10;99.90;;;;;;5074906;28;20006;-90
2021/07/27 02:56:38;;;;;;;;;;;17.00;99.90;;;;;;5073261;28;20265;-83
2021/07/27 02:59:04;;;;;;;;;;;17.10;99.90;;;;;;5086522;28;19986;-84
2021/07/27 03:01:29;;;;;;;;;;;17.10;99.90;;;;;;5080944;28;19912;-84
2021/07/27 03:03:55;;;;;;;;;;;17.10;99.90;;;;;;5072643;28;20174;-88
2021/07/27 03:06:21;;;;;;;;;;;17.10;99.90;;;;;;5068744;28;19916;-87
2021/07/27 03:11:21;;;;;;;;;;;17.10;99.90;;;;;;5098781;28;19920;-89
2021/07/27 03:13:47;;;;;;;;;;;17.10;99.90;;;;;;5085058;28;19921;-82
2021/07/27 03:16:17;;;;;;;;;;;17.10;99.90;;;;;;5092025;28;19919;-84
2021/07/27 03:18:43;;;;;;;;;;;17.10;99.90;;;;;;5105172;28;20576;-82
2021/07/27 03:21:09;;;;;;;;;;;17.10;99.90;;;;;;5106333;28;19918;-92
2021/07/27 03:23:34;;;;;;;;;;;17.10;99.90;;;;;;5090409;28;19916;-80
2021/07/27 03:26:00;;;;;;;;;;;17.20;99.90;;;;;;5113110;28;19920;-87
2021/07/27 03:28:26;;;;;;;;;;;17.20;99.90;;;;;;5104242;28;19919;-84
2021/07/27 03:30:51;;;;;;;;;;;17.20;99.90;;;;;;5102025;28;19924;-79
2021/07/27 03:33:17;;;;;;;;;;;17.20;99.90;;;;;;5108337;28;19920;-82
2021/07/27 03:35:42;;;;;;;;;;;17.20;99.90;;;;;;5104480;28;20347;-88
2021/07/27 03:38:08;;;;;;;;;;;17.20;99.90;;;;;;5092616;28;20329;-85
2021/07/27 03:40:38;;;;;;;;;;;17.20;99.90;;;;;;5084892;28;19916;-78
2021/07/27 03:43:03;;;;;;;;;;;17.20;99.90;;;;;;5071956;28;20003;-89
2021/07/27 03:45:29;;;;;;;;;;;17.20;99.90;;;;;;5091897;28;20006;-86
2021/07/27 03:47:54;;;;;;;;;;;17.20;99.90;;;;;;5089087;28;19916;-87
2021/07/27 03:50:21;;;;;;;;;;;17.10;99.90;;;;;;5093906;28;19922;-88
2021/07/27 03:52:47;;;;;;;;;;;17.10;99.90;;;;;;5083396;28;19911;-88
2021/07/27 03:55:13;;;;;;;;;;;17.10;99.90;;;;;;5073708;28;19919;-79
2021/07/27 03:57:38;;;;;;;;;;;17.10;99.90;;;;;;5103485;28;19998;-80
2021/07/27 04:00:05;;;;;;;;;;;17.10;99.90;;;;;;5096191;28;19923;-89
2021/07/27 04:02:30;;;;;;;;;;;17.00;99.90;;;;;;5077361;28;20168;-79
2021/07/27 04:04:56;;;;;;;;;;;17.00;99.90;;;;;;5076758;28;19935;-80
2021/07/27 04:07:22;;;;;;;;;;;17.00;99.90;;;;;;5075223;28;19912;-85
2021/07/27 04:09:47;;;;;;;;;;;17.10;99.90;;;;;;5090618;28;19916;-80
2021/07/27 04:12:13;;;;;;;;;;;17.10;99.90;;;;;;5065526;28;20575;-78
2021/07/27 04:14:38;;;;;;;;;;;17.10;99.90;;;;;;5091754;28;19981;-89
2021/07/27 04:17:04;;;;;;;;;;;17.10;99.90;;;;;;5081828;28;19912;-82
2021/07/27 04:19:29;;;;;;;;;;;17.10;99.90;;;;;;5088929;28;19919;-80
2021/07/27 04:21:55;;;;;;;;;;;17.10;99.90;;;;;;5096113;28;20279;-84
2021/07/27 04:24:21;;;;;;;;;;;17.10;99.90;;;;;;5094771;28;19919;-79
2021/07/27 04:26:47;;;;;;;;;;;17.10;99.90;;;;;;5090646;28;19977;-80
2021/07/27 04:29:13;;;;;;;;;;;17.10;99.90;;;;;;5082270;28;19912;-88
2021/07/27 04:31:39;;;;;;;;;;;17.20;99.90;;;;;;5097585;28;20058;-79
2021/07/27 04:34:05;;;;;;;;;;;17.20;99.90;;;;;;5097174;28;20045;-89
2021/07/27 04:36:30;;;;;;;;;;;17.10;99.90;;;;;;5096631;28;20002;-86
2021/07/27 04:38:56;;;;;;;;;;;17.10;99.90;;;;;;5075841;28;19923;-87
2021/07/27 04:41:22;;;;;;;;;;;17.10;99.90;;;;;;5107262;28;20290;-80
2021/07/27 04:43:47;;;;;;;;;;;17.10;99.90;;;;;;5109266;28;20097;-79
2021/07/27 04:46:13;;;;;;;;;;;17.20;99.90;;;;;;5075450;28;19920;-79
2021/07/27 04:48:39;;;;;;;;;;;17.10;99.90;;;;;;5070787;28;19924;-80
2021/07/27 04:51:05;;;;;;;;;;;17.10;99.90;;;;;;5090867;28;19924;-79
2021/07/27 04:53:33;;;;;;;;;;;17.10;99.90;;;;;;5073419;28;20226;-87
2021/07/27 04:56:00;;;;;;;;;;;17.10;99.90;;;;;;5077048;28;19916;-83
2021/07/27 04:58:25;;;;;;;;;;;17.10;99.90;;;;;;5077193;28;20225;-81
2021/07/27 05:00:51;;;;;;;;;;;17.10;99.90;;;;;;5078149;28;19999;-79
2021/07/27 05:03:16;;;;;;;;;;;17.10;99.90;;;;;;5095567;28;19920;-85
2021/07/27 05:05:42;;;;;;;;;;;17.20;99.90;;;;;;5094583;28;19920;-82
2021/07/27 05:08:08;;;;;;;;;;;17.20;99.90;;;;;;5094732;28;19931;-79
2021/07/27 05:10:33;;;;;;;;;;;17.20;99.90;;;;;;5077098;28;19923;-89
2021/07/27 05:12:59;;;;;;;;;;;17.20;99.90;;;;;;5073677;28;19920;-80
2021/07/27 05:15:25;;;;;;;;;;;17.20;99.90;;;;;;5075135;28;20231;-79
2021/07/27 05:17:55;;;;;;;;;;;17.20;99.90;;;;;;5074629;28;19961;-81
2021/07/27 05:20:20;;;;;;;;;;;17.20;99.90;;;;;;5074067;28;19960;-80
2021/07/27 05:22:46;;;;;;;;;;;17.20;99.90;;;;;;5095006;28;19963;-79
2021/07/27 05:25:12;;;;;;;;;;;17.20;99.90;;;;;;5069818;28;20358;-77
2021/07/27 05:27:37;;;;;;;;;;;17.20;99.90;;;;;;5075374;28;19912;-80
2021/07/27 05:30:04;;;;;;;;;;;17.20;99.90;;;;;;5075279;28;19970;-86
2021/07/27 05:32:29;;;;;;;;;;;17.20;99.90;;;;;;5075631;28;20015;-92
2021/07/27 05:34:55;;;;;;;;;;;17.20;99.90;;;;;;5091727;28;20049;-90
2021/07/27 05:37:21;;;;;;;;;;;17.20;99.90;;;;;;5092301;28;19927;-79
2021/07/27 05:39:46;;;;;;;;;;;17.20;99.90;;;;;;5092523;28;20304;-85
2021/07/27 05:42:12;;;;;;;;;;;17.20;99.90;;;;;;5094704;28;19912;-90
2021/07/27 05:44:38;;;;;;;;;;;17.20;99.90;;;;;;5080307;28;20592;-79
2021/07/27 05:47:04;;;;;;;;;;;17.20;99.90;;;;;;5075692;28;19931;-77
2021/07/27 05:49:30;;;;;;;;;;;17.20;99.90;;;;;;5087527;28;19927;-91
2021/07/27 05:51:56;;;;;;;;;;;17.20;99.90;;;;;;5078295;28;19916;-79
2021/07/27 05:54:22;;;;;;;;;;;17.20;99.90;;;;;;5089733;28;19931;-79
2021/07/27 05:56:48;;;;;;;;;;;17.20;99.90;;;;;;5075353;28;20222;-81
2021/07/27 05:59:14;;;;;;;;;;;17.20;99.90;;;;;;5082750;28;19966;-77
2021/07/27 06:01:40;;;;;;;;;;;17.20;99.90;;;;;;5071304;28;19912;-83
2021/07/27 06:04:06;;;;;;;;;;;17.20;99.90;;;;;;5090243;28;19916;-84
2021/07/27 06:06:32;;;;;;;;;;;17.20;99.90;;;;;;5106741;28;19912;-86
2021/07/27 06:09:06;;;;;;;;;;;17.20;99.90;;;;;;5100980;28;19938;-83
2021/07/27 06:11:32;;;;;;;;;;;17.20;99.90;;;;;;5081461;28;19959;-85
2021/07/27 06:13:58;;;;;;;;;;;17.20;99.90;;;;;;5093463;28;19965;-88
2021/07/27 06:16:23;;;;;;;;;;;17.30;99.90;;;;;;5093602;28;20211;-79
2021/07/27 06:18:49;;;;;;;;;;;17.30;99.90;;;;;;5077275;28;19913;-79
2021/07/27 06:21:15;;;;;;;;;;;17.30;99.90;;;;;;5096327;28;19978;-80
2021/07/27 06:23:40;;;;;;;;;;;17.30;99.90;;;;;;5075939;28;19917;-82
2021/07/27 06:26:06;;;;;;;;;;;17.30;99.90;;;;;;5096997;28;19912;-81
2021/07/27 06:28:33;;;;;;;;;;;17.30;99.90;;;;;;5081235;28;20307;-80
2021/07/27 06:30:59;;;;;;;;;;;17.40;99.90;;;;;;5101099;28;20234;-79
2021/07/27 06:33:24;;;;;;;;;;;17.40;99.90;;;;;;5081130;28;20007;-86
2021/07/27 06:35:59;;;;;;;;;;;17.40;99.90;;;;;;5066816;28;20303;-80
2021/07/27 06:38:26;;;;;;;;;;;17.40;99.90;;;;;;5085651;28;19942;-86
2021/07/27 06:40:51;;;;;;;;;;;17.40;99.90;;;;;;5072863;28;19916;-81
2021/07/27 06:43:17;;;;;;;;;;;17.40;99.90;;;;;;5079989;28;19935;-85
2021/07/27 06:45:43;;;;;;;;;;;17.50;99.90;;;;;;5075214;28;19912;-89
2021/07/27 06:48:10;;;;;;;;;;;17.60;99.90;;;;;;5068830;28;20258;-80
2021/07/27 06:50:36;;;;;;;;;;;17.70;99.90;;;;;;5076756;28;19965;-85
2021/07/27 06:53:02;;;;;;;;;;;17.80;99.90;;;;;;5084850;28;19911;-80
2021/07/27 06:55:27;;;;;;;;;;;17.80;99.90;;;;;;5070363;28;20011;-81
2021/07/27 06:57:53;;;;;;;;;;;17.80;99.90;;;;;;5079754;28;20084;-81
2021/07/27 07:00:19;;;;;;;;;;;17.90;99.90;;;;;;5082516;28;19948;-78
2021/07/27 07:02:44;;;;;;;;;;;18.00;99.90;;;;;;5088075;28;19922;-84
2021/07/27 07:05:10;;;;;;;;;;;18.00;99.90;;;;;;5105950;28;19916;-86
2021/07/27 07:07:36;;;;;;;;;;;18.10;99.90;;;;;;5104264;28;19969;-89
2021/07/27 07:10:02;;;;;;;;;;;18.10;99.90;;;;;;5082992;28;19948;-80
2021/07/27 07:12:29;;;;;;;;;;;18.10;99.90;;;;;;5080107;28;19913;-79
2021/07/27 07:14:55;;;;;;;;;;;18.10;99.90;;;;;;5082664;28;19912;-80
2021/07/27 07:17:21;;;;;;;;;;;18.10;99.90;;;;;;5089747;28;19920;-80
2021/07/27 07:19:46;;;;;;;;;;;18.10;99.90;;;;;;5092479;28;19916;-77
2021/07/27 07:22:12;;;;;;;;;;;18.20;99.90;;;;;;5081167;28;19959;-82
2021/07/27 07:24:38;;;;;;;;;;;18.20;99.90;;;;;;5093386;28;19927;-80
2021/07/27 07:27:03;;;;;;;;;;;18.30;99.90;;;;;;5108001;28;19920;-80
2021/07/27 07:29:29;;;;;;;;;;;18.30;99.90;;;;;;5083076;28;20210;-82
2021/07/27 07:31:55;;;;;;;;;;;18.20;99.90;;;;;;5070682;28;19942;-79
2021/07/27 07:34:20;;;;;;;;;;;18.20;99.90;;;;;;5081262;28;19912;-81
2021/07/27 07:36:46;;;;;;;;;;;18.20;99.90;;;;;;5094309;28;19916;-81
2021/07/27 07:39:12;;;;;;;;;;;18.20;99.90;;;;;;5073389;28;19920;-80
2021/07/27 07:41:38;;;;;;;;;;;18.20;99.90;;;;;;5091612;28;19916;-81
2021/07/27 07:44:04;;;;;;;;;;;18.30;99.90;;;;;;5076078;28;20249;-84
2021/07/27 07:46:29;;;;;;;;;;;18.30;99.90;;;;;;5073899;28;19921;-83
2021/07/27 07:48:55;;;;;;;;;;;18.30;99.90;;;;;;5082733;28;19963;-85
2021/07/27 07:51:21;;;;;;;;;;;18.20;99.90;;;;;;5107174;28;19915;-79
2021/07/27 07:53:47;;;;;;;;;;;18.30;99.90;;;;;;5106818;28;19945;-87
2021/07/27 07:56:13;;;;;;;;;;;18.30;99.90;;;;;;5088959;28;20268;-84
2021/07/27 07:58:38;;;;;;;;;;;18.30;99.90;;;;;;5091110;28;19916;-79
2021/07/27 08:01:08;;;;;;;;;;;18.40;99.90;;;;;;5083308;28;20214;-85
2021/07/27 08:03:34;;;;;;;;;;;18.40;99.90;;;;;;5087751;28;19958;-87
2021/07/27 08:05:59;;;;;;;;;;;18.60;99.90;;;;;;5087625;28;20044;-81
2021/07/27 08:08:25;;;;;;;;;;;18.70;99.90;;;;;;5087000;28;19916;-81
2021/07/27 08:10:51;;;;;;;;;;;18.80;99.90;;;;;;5078638;28;19962;-80
2021/07/27 08:13:16;;;;;;;;;;;18.90;99.90;;;;;;5076748;28;19919;-88
2021/07/27 08:15:42;;;;;;;;;;;19.00;99.90;;;;;;5094617;28;20180;-81
2021/07/27 08:18:07;;;;;;;;;;;19.00;99.90;;;;;;5093060;28;20238;-80
2021/07/27 08:20:33;;;;;;;;;;;19.10;99.90;;;;;;5079271;28;19912;-86
2021/07/27 08:22:59;;;;;;;;;;;19.20;99.90;;;;;;5084698;28;19970;-85
2021/07/27 08:25:25;;;;;;;;;;;19.20;99.90;;;;;;5086646;28;20243;-80
2021/07/27 08:27:51;;;;;;;;;;;19.20;99.90;;;;;;5095314;28;20320;-85
2021/07/27 08:30:17;;;;;;;;;;;19.20;99.90;;;;;;5082616;28;20329;-80
2021/07/27 08:32:44;;;;;;;;;;;19.20;99.90;;;;;;5075584;28;19961;-80
2021/07/27 08:35:10;;;;;;;;;;;19.30;99.90;;;;;;5066127;28;19916;-80
2021/07/27 08:37:35;;;;;;;;;;;19.30;99.90;;;;;;5086205;28;20322;-85
2021/07/27 08:40:01;;;;;;;;;;;19.30;99.90;;;;;;5066658;28;19916;-85
2021/07/27 08:42:28;;;;;;;;;;;19.30;99.90;;;;;;5084363;28;19913;-80
2021/07/27 08:44:56;;;;;;;;;;;19.30;99.90;;;;;;5088741;28;19927;-83
2021/07/27 08:47:21;;;;;;;;;;;19.30;99.90;;;;;;5073248;28;20207;-80
2021/07/27 08:49:47;;;;;;;;;;;19.30;99.90;;;;;;5070224;28;19920;-80
2021/07/27 08:52:13;;;;;;;;;;;19.30;99.90;;;;;;5071703;28;19974;-80
2021/07/27 08:54:43;;;;;;;;;;;19.20;99.90;;;;;;5072955;28;19927;-80
2021/07/27 08:57:13;;;;;;;;;;;19.20;99.90;;;;;;5076708;28;20026;-80
2021/07/27 08:59:38;;;;;;;;;;;19.30;99.90;;;;;;5072691;28;20466;-79
2021/07/27 09:02:04;;;;;;;;;;;19.20;99.90;;;;;;5074508;28;19912;-81
2021/07/27 09:04:30;;;;;;;;;;;19.30;99.90;;;;;;5072176;28;19953;-81
2021/07/27 09:07:03;;;;;;;;;;;19.20;99.90;;;;;;5075175;28;20322;-88
2021/07/27 09:09:32;;;;;;;;;;;19.20;99.90;;;;;;5073196;28;19970;-79
2021/07/27 09:11:59;;;;;;;;;;;19.20;99.90;;;;;;5076401;28;19919;-83
2021/07/27 09:14:24;;;;;;;;;;;19.20;99.90;;;;;;5075541;28;20319;-83
2021/07/27 09:16:51;;;;;;;;;;;19.20;99.90;;;;;;5072563;28;19988;-79
2021/07/27 09:19:17;;;;;;;;;;;19.20;99.90;;;;;;5075947;28;19920;-87
2021/07/27 09:21:43;;;;;;;;;;;19.20;99.90;;;;;;5072294;28;19912;-84
2021/07/27 09:24:09;;;;;;;;;;;19.20;99.90;;;;;;5073313;28;19927;-85
2021/07/27 09:26:35;;;;;;;;;;;19.20;99.90;;;;;;5073149;28;19920;-82
2021/07/27 09:29:02;;;;;;;;;;;19.10;99.90;;;;;;5069740;28;19917;-80
2021/07/27 09:31:28;;;;;;;;;;;19.20;99.90;;;;;;5070505;28;19959;-83
2021/07/27 09:33:54;;;;;;;;;;;19.20;99.90;;;;;;5071559;28;19955;-86
2021/07/27 09:36:23;;;;;;;;;;;19.30;99.90;;;;;;5073318;28;19931;-80
2021/07/27 09:39:02;;;;;;;;;;;19.30;99.90;;;;;;5071733;28;19912;-80
2021/07/27 09:41:29;;;;;;;;;;;19.40;99.90;;;;;;5073882;28;19946;-83
2021/07/27 09:43:58;;;;;;;;;;;19.40;99.90;;;;;;5065167;28;19938;-80
2021/07/27 09:46:24;;;;;;;;;;;19.40;99.90;;;;;;5065058;28;19920;-83
2021/07/27 09:48:50;;;;;;;;;;;19.40;99.90;;;;;;5078932;28;20019;-84
2021/07/27 09:51:39;;;;;;;;;;;19.40;99.90;;;;;;5097818;28;19916;-84
2021/07/27 09:54:05;;;;;;;;;;;19.40;99.90;;;;;;5095879;28;19924;-82
2021/07/27 09:56:30;;;;;;;;;;;19.40;99.90;;;;;;5105263;28;20007;-84
2021/07/27 09:58:56;;;;;;;;;;;19.50;99.90;;;;;;5082984;28;19919;-79
2021/07/27 10:01:24;;;;;;;;;;;19.50;99.90;;;;;;5088698;28;19915;-79
2021/07/27 10:03:51;;;;;;;;;;;19.50;99.90;;;;;;5082957;28;19922;-81
2021/07/27 10:06:28;;;;;;;;;;;19.50;99.90;;;;;;5083582;28;19920;-83
2021/07/27 10:08:54;;;;;;;;;;;19.50;99.90;;;;;;5101697;28;19916;-81
2021/07/27 10:11:20;;;;;;;;;;;19.40;99.90;;;;;;5082387;28;19935;-80
2021/07/27 10:13:51;;;;;;;;;;;19.50;99.90;;;;;;5097532;28;20199;-81
2021/07/27 10:16:21;;;;;;;;;;;19.50;99.90;;;;;;5077147;28;20318;-82
2021/07/27 10:18:46;;;;;;;;;;;19.60;99.90;;;;;;5101690;28;19911;-86
2021/07/27 10:21:29;;;;;;;;;;;19.70;99.90;;;;;;5077336;28;19912;-85
2021/07/27 10:23:59;;;;;;;;;;;19.80;99.90;;;;;;5077443;28;19935;-84
2021/07/27 10:26:29;;;;;;;;;;;20.00;99.90;;;;;;5096957;28;19916;-80
2021/07/27 10:32:00;;;;;;;;;;;20.00;99.90;;;;;;5082852;28;19978;-84
2021/07/27 10:34:31;;;;;;;;;;;19.90;99.90;;;;;;5080516;28;19962;-84
2021/07/27 10:37:06;;;;;;;;;;;19.90;99.90;;;;;;5078521;28;19911;-83
2021/07/27 10:39:31;;;;;;;;;;;19.80;99.90;;;;;;5102492;28;19920;-84
2021/07/27 10:42:05;;;;;;;;;;;19.80;99.90;;;;;;5100462;28;19912;-81
2021/07/27 10:44:39;;;;;;;;;;;19.80;99.90;;;;;;5086702;28;19920;-83
2021/07/27 10:47:08;;;;;;;;;;;19.70;99.90;;;;;;5072385;28;19920;-85
2021/07/27 10:49:34;;;;;;;;;;;19.50;99.90;;;;;;5083603;28;20300;-79
2021/07/27 10:52:03;;;;;;;;;;;19.40;99.90;;;;;;5066479;28;19912;-83
2021/07/27 10:54:30;;;;;;;;;;;19.40;99.90;;;;;;5069673;28;19920;-82
2021/07/27 10:56:57;;;;;;;;;;;19.40;99.90;;;;;;5078710;28;19912;-83
2021/07/27 10:59:24;;;;;;;;;;;19.40;99.90;;;;;;5066603;28;19919;-81
2021/07/27 11:01:54;;;;;;;;;;;19.40;99.90;;;;;;5090542;28;19951;-82
2021/07/27 11:04:25;;;;;;;;;;;19.50;99.90;;;;;;5082364;28;19920;-79
2021/07/27 11:06:51;;;;;;;;;;;19.40;99.90;;;;;;5096411;28;19912;-78
2021/07/27 11:09:16;;;;;;;;;;;19.40;99.90;;;;;;5110007;28;19927;-81
2021/07/27 11:11:43;;;;;;;;;;;19.40;99.90;;;;;;5095152;28;19972;-82
2021/07/27 11:14:09;;;;;;;;;;;19.50;99.90;;;;;;5101133;28;19916;-80
2021/07/27 11:16:44;;;;;;;;;;;19.70;99.90;;;;;;5082326;28;20317;-80
2021/07/27 11:19:10;;;;;;;;;;;19.90;99.90;;;;;;5094640;28;20275;-84
2021/07/27 11:21:39;;;;;;;;;;;20.20;99.90;;;;;;5094541;28;19920;-84
2021/07/27 11:24:04;;;;;;;;;;;20.50;99.90;;;;;;5072376;28;20393;-82
2021/07/27 11:26:36;;;;;;;;;;;20.70;99.90;;;;;;5093837;28;19919;-81
2021/07/27 11:29:09;;;;;;;;;;;20.70;99.90;;;;;;5092326;28;20011;-79
2021/07/27 11:31:43;;;;;;;;;;;20.90;99.90;;;;;;5075769;28;19917;-78
2021/07/27 11:34:09;;;;;;;;;;;21.10;99.90;;;;;;5100300;28;20256;-80
2021/07/27 11:36:34;;;;;;;;;;;21.40;99.90;;;;;;5070399;28;19912;-85
2021/07/27 11:39:04;;;;;;;;;;;21.50;99.90;;;;;;5093808;28;19912;-82
2021/07/27 11:41:30;;;;;;;;;;;21.50;99.90;;;;;;5074087;28;19958;-83
2021/07/27 11:43:56;;;;;;;;;;;21.50;99.90;;;;;;5095719;28;19916;-85
2021/07/27 11:46:29;;;;;;;;;;;21.40;99.90;;;;;;5101845;28;19916;-81
2021/07/27 11:48:55;;;;;;;;;;;21.40;99.90;;;;;;5089020;28;20314;-78
2021/07/27 11:51:31;;;;;;;;;;;21.50;99.90;;;;;;5064873;28;20257;-83
2021/07/27 11:53:57;;;;;;;;;;;21.60;99.90;;;;;;5083952;28;19912;-83
2021/07/27 11:56:23;;;;;;;;;;;21.60;99.90;;;;;;5094436;28;19958;-79
2021/07/27 11:58:49;;;;;;;;;;;21.60;99.90;;;;;;5070971;28;20285;-83
2021/07/27 12:01:15;;;;;;;;;;;21.50;99.90;;;;;;5066211;28;19938;-83
2021/07/27 12:03:40;;;;;;;;;;;21.40;99.90;;;;;;5088601;28;19947;-84
2021/07/27 12:06:13;;;;;;;;;;;21.30;99.90;;;;;;5074681;28;19916;-82
2021/07/27 12:08:39;;;;;;;;;;;21.20;99.90;;;;;;5090866;28;20007;-80
2021/07/27 12:11:05;;;;;;;;;;;21.20;99.90;;;;;;5067557;28;20414;-79
2021/07/27 12:13:31;;;;;;;;;;;21.40;99.90;;;;;;5091604;28;19916;-82
2021/07/27 12:15:57;;;;;;;;;;;21.60;99.90;;;;;;5085075;28;19919;-83
2021/07/27 12:18:23;;;;;;;;;;;21.80;99.90;;;;;;5091666;28;19912;-80
2021/07/27 12:20:50;;;;;;;;;;;21.90;99.90;;;;;;5073541;28;19916;-82
2021/07/27 12:23:18;;;;;;;;;;;21.80;99.90;;;;;;5074685;28;19912;-86
2021/07/27 12:25:44;;;;;;;;;;;21.80;99.90;;;;;;5094599;28;20334;-82
2021/07/27 12:28:09;;;;;;;;;;;21.80;99.90;;;;;;5092341;28;19916;-83
2021/07/27 12:30:35;;;;;;;;;;;21.70;99.90;;;;;;5109398;28;19920;-77
2021/07/27 12:33:00;;;;;;;;;;;21.80;99.90;;;;;;5092478;28;19916;-82
2021/07/27 12:35:26;;;;;;;;;;;21.80;99.90;;;;;;5080345;28;19920;-83
2021/07/27 12:37:52;;;;;;;;;;;21.90;99.90;;;;;;5088662;28;19916;-84
2021/07/27 12:40:17;;;;;;;;;;;22.10;99.90;;;;;;5099846;28;19961;-80
2021/07/27 12:42:43;;;;;;;;;;;22.10;99.90;;;;;;5091524;28;19923;-83
2021/07/27 12:45:09;;;;;;;;;;;22.30;99.90;;;;;;5088327;28;19920;-84
2021/07/27 12:47:35;;;;;;;;;;;22.40;99.90;;;;;;5104245;28;20283;-79
2021/07/27 12:50:00;;;;;;;;;;;22.50;99.90;;;;;;5084208;28;19926;-83
2021/07/27 12:52:26;;;;;;;;;;;22.50;99.90;;;;;;5096880;28;20027;-85
2021/07/27 12:54:51;;;;;;;;;;;22.50;99.90;;;;;;5086517;28;19916;-84
2021/07/27 12:57:17;;;;;;;;;;;22.40;99.90;;;;;;5083955;28;20376;-81
2021/07/27 12:59:43;;;;;;;;;;;22.40;99.90;;;;;;5107625;28;19937;-81
2021/07/27 13:02:09;;;;;;;;;;;22.40;99.90;;;;;;5089990;28;19916;-89
2021/07/27 13:04:35;;;;;;;;;;;22.50;99.90;;;;;;5095343;28;19922;-84
2021/07/27 13:07:01;;;;;;;;;;;22.40;99.90;;;;;;5091418;28;19920;-82
2021/07/27 13:09:26;;;;;;;;;;;22.30;99.90;;;;;;5103861;28;20266;-87
2021/07/27 13:11:52;;;;;;;;;;;22.20;99.90;;;;;;5083595;28;20314;-81
2021/07/27 13:14:18;;;;;;;;;;;22.00;99.90;;;;;;5080919;28;19912;-82
2021/07/27 13:16:44;;;;;;;;;;;21.90;99.90;;;;;;5103568;28;19916;-82
2021/07/27 13:19:10;;;;;;;;;;;21.80;99.90;;;;;;5102568;28;20456;-85
2021/07/27 13:21:36;;;;;;;;;;;21.70;99.90;;;;;;5085733;28;20011;-82
2021/07/27 13:24:04;;;;;;;;;;;21.60;99.90;;;;;;5074980;28;20050;-82
2021/07/27 13:26:36;;;;;;;;;;;21.40;99.90;;;;;;5074363;28;20322;-82
2021/07/27 13:29:02;;;;;;;;;;;21.40;99.90;;;;;;5081348;28;19920;-82
2021/07/27 13:31:28;;;;;;;;;;;21.30;99.90;;;;;;5068606;28;19934;-82
2021/07/27 13:33:53;;;;;;;;;;;21.30;99.90;;;;;;5066136;28;19963;-82
2021/07/27 13:36:19;;;;;;;;;;;21.20;99.90;;;;;;5065361;28;19956;-81
2021/07/27 13:38:44;;;;;;;;;;;21.20;99.90;;;;;;5095970;28;19912;-82
2021/07/27 13:41:10;;;;;;;;;;;21.20;99.90;;;;;;5102196;28;20002;-82
2021/07/27 13:43:36;;;;;;;;;;;21.10;99.90;;;;;;5077257;28;19961;-81
2021/07/27 13:46:01;;;;;;;;;;;21.10;99.90;;;;;;5092542;28;20326;-81
2021/07/27 13:48:27;;;;;;;;;;;21.10;99.90;;;;;;5080812;28;20061;-81
2021/07/27 13:50:52;;;;;;;;;;;21.10;99.90;;;;;;5088938;28;20303;-83
2021/07/27 13:53:18;;;;;;;;;;;21.10;99.90;;;;;;5088895;28;20260;-81
2021/07/27 13:55:44;;;;;;;;;;;21.20;99.90;;;;;;5087068;28;19913;-81
2021/07/27 13:58:13;;;;;;;;;;;21.40;99.90;;;;;;5086193;28;20011;-82
2021/07/27 14:00:38;;;;;;;;;;;21.70;99.90;;;;;;5085824;28;20322;-83
2021/07/27 14:03:04;;;;;;;;;;;22.00;99.90;;;;;;5087970;28;19952;-81
2021/07/27 14:05:29;;;;;;;;;;;22.20;99.90;;;;;;5085737;28;19913;-83
2021/07/27 14:07:55;;;;;;;;;;;22.30;99.90;;;;;;5094003;28;19935;-82
2021/07/27 14:10:21;;;;;;;;;;;22.30;99.90;;;;;;5091476;28;20022;-80
2021/07/27 14:12:47;;;;;;;;;;;22.20;99.90;;;;;;5094334;28;20348;-80
2021/07/27 14:15:12;;;;;;;;;;;22.30;99.90;;;;;;5092033;28;19943;-81
2021/07/27 14:17:38;;;;;;;;;;;22.40;99.90;;;;;;5096818;28;19938;-80
2021/07/27 14:20:04;;;;;;;;;;;22.50;99.90;;;;;;5089594;28;19923;-83
2021/07/27 14:22:30;;;;;;;;;;;22.60;99.90;;;;;;5091340;28;19916;-80
2021/07/27 14:24:55;;;;;;;;;;;22.60;99.90;;;;;;5092451;28;19920;-81
2021/07/27 14:27:21;;;;;;;;;;;22.70;99.90;;;;;;5086545;28;19924;-82
2021/07/27 14:29:46;;;;;;;;;;;22.80;99.90;;;;;;5086697;28;20180;-83
2021/07/27 14:32:12;;;;;;;;;;;22.90;99.90;;;;;;5087381;28;20015;-81
2021/07/27 14:34:40;;;;;;;;;;;22.90;99.90;;;;;;5093893;28;19918;-84